Las Vegas, Nevada
Traffic Map
Current Weather Conditions
Las Vegas, Nevada
Broken Clouds
Broken Clouds
49°
Feels Like: 44°
Wind Chill: 44° Ceiling: 25000
Heat Index: 49° Visibility: 10mi
Dew Point: Wind: 12mph
Humidity: 19% Direction: 300° (WNW)
Pressure: 30.01in Gusts: 0mph
Raw Report DataKLAS 250156Z 30010KT 10SM FEW140 BKN250 09/M13 A3001 RMK AO2 SLP167 T00941133
Traffic Incident Summary
Active as of:
Severity:
Category:
InformationThere was an issue retrieving the traffic information for this location. Please try a different location or try again shortly.
Advertisements